sensor_id;sensor_type;location;lat;lon;timestamp;P1;durP1;ratioP1;P2;durP2;ratioP2
59856;SDS011;45733;52.668;6.860;2024-01-15T00:01:46;1.20;;;1.20;;
59856;SDS011;45733;52.668;6.860;2024-01-15T00:04:14;1.10;;;1.10;;
59856;SDS011;45733;52.668;6.860;2024-01-15T00:06:40;1.20;;;1.20;;
59856;SDS011;45733;52.668;6.860;2024-01-15T00:09:06;1.10;;;1.10;;
59856;SDS011;45733;52.668;6.860;2024-01-15T00:11:32;1.20;;;1.20;;
59856;SDS011;45733;52.668;6.860;2024-01-15T00:13:57;1.20;;;1.20;;
59856;SDS011;45733;52.668;6.860;2024-01-15T00:16:23;1.20;;;1.20;;
59856;SDS011;45733;52.668;6.860;2024-01-15T00:18:49;1.20;;;1.20;;
59856;SDS011;45733;52.668;6.860;2024-01-15T00:21:15;1.20;;;1.20;;
59856;SDS011;45733;52.668;6.860;2024-01-15T00:23:44;1.27;;;1.27;;
59856;SDS011;45733;52.668;6.860;2024-01-15T00:26:10;1.23;;;1.23;;
59856;SDS011;45733;52.668;6.860;2024-01-15T00:28:36;1.20;;;1.20;;
59856;SDS011;45733;52.668;6.860;2024-01-15T00:31:03;1.20;;;1.20;;
59856;SDS011;45733;52.668;6.860;2024-01-15T00:33:31;1.30;;;1.30;;
59856;SDS011;45733;52.668;6.860;2024-01-15T00:35:57;1.20;;;1.20;;
59856;SDS011;45733;52.668;6.860;2024-01-15T00:38:23;1.10;;;1.10;;
59856;SDS011;45733;52.668;6.860;2024-01-15T00:40:48;1.10;;;1.10;;
59856;SDS011;45733;52.668;6.860;2024-01-15T00:43:14;1.20;;;1.20;;
59856;SDS011;45733;52.668;6.860;2024-01-15T00:45:43;1.20;;;1.20;;
59856;SDS011;45733;52.668;6.860;2024-01-15T00:48:09;1.27;;;1.27;;
59856;SDS011;45733;52.668;6.860;2024-01-15T00:50:34;1.27;;;1.27;;
59856;SDS011;45733;52.668;6.860;2024-01-15T00:53:00;1.20;;;1.20;;
59856;SDS011;45733;52.668;6.860;2024-01-15T00:55:26;1.20;;;1.20;;
59856;SDS011;45733;52.668;6.860;2024-01-15T00:57:53;1.20;;;1.20;;
59856;SDS011;45733;52.668;6.860;2024-01-15T01:00:19;1.30;;;1.30;;
59856;SDS011;45733;52.668;6.860;2024-01-15T01:02:45;1.20;;;1.20;;
59856;SDS011;45733;52.668;6.860;2024-01-15T01:05:11;1.20;;;1.20;;
59856;SDS011;45733;52.668;6.860;2024-01-15T01:07:36;1.20;;;1.20;;
59856;SDS011;45733;52.668;6.860;2024-01-15T01:10:02;1.20;;;1.20;;
59856;SDS011;45733;52.668;6.860;2024-01-15T01:12:29;1.20;;;1.20;;
59856;SDS011;45733;52.668;6.860;2024-01-15T01:14:55;1.20;;;1.20;;
59856;SDS011;45733;52.668;6.860;2024-01-15T01:17:21;1.25;;;1.25;;
59856;SDS011;45733;52.668;6.860;2024-01-15T01:19:47;1.30;;;1.30;;
59856;SDS011;45733;52.668;6.860;2024-01-15T01:22:13;1.50;;;1.40;;
59856;SDS011;45733;52.668;6.860;2024-01-15T01:24:38;1.20;;;1.20;;
59856;SDS011;45733;52.668;6.860;2024-01-15T01:27:04;1.20;;;1.20;;
59856;SDS011;45733;52.668;6.860;2024-01-15T01:29:30;1.20;;;1.20;;
59856;SDS011;45733;52.668;6.860;2024-01-15T01:31:58;1.20;;;1.20;;
59856;SDS011;45733;52.668;6.860;2024-01-15T01:34:24;1.20;;;1.20;;
59856;SDS011;45733;52.668;6.860;2024-01-15T01:36:50;1.20;;;1.20;;
59856;SDS011;45733;52.668;6.860;2024-01-15T01:39:15;1.30;;;1.30;;
59856;SDS011;45733;52.668;6.860;2024-01-15T01:41:41;1.20;;;1.20;;
59856;SDS011;45733;52.668;6.860;2024-01-15T01:44:07;1.25;;;1.25;;
59856;SDS011;45733;52.668;6.860;2024-01-15T01:46:32;1.20;;;1.20;;
59856;SDS011;45733;52.668;6.860;2024-01-15T01:48:59;1.27;;;1.27;;
59856;SDS011;45733;52.668;6.860;2024-01-15T01:51:30;1.30;;;1.30;;
59856;SDS011;45733;52.668;6.860;2024-01-15T01:53:56;1.30;;;1.30;;
59856;SDS011;45733;52.668;6.860;2024-01-15T01:56:22;1.30;;;1.30;;
59856;SDS011;45733;52.668;6.860;2024-01-15T01:58:48;1.25;;;1.25;;
59856;SDS011;45733;52.668;6.860;2024-01-15T02:01:14;1.30;;;1.30;;
59856;SDS011;45733;52.668;6.860;2024-01-15T02:03:40;1.27;;;1.27;;
59856;SDS011;45733;52.668;6.860;2024-01-15T02:06:06;1.20;;;1.20;;
59856;SDS011;45733;52.668;6.860;2024-01-15T02:08:33;1.20;;;1.20;;
59856;SDS011;45733;52.668;6.860;2024-01-15T02:10:59;1.23;;;1.23;;
59856;SDS011;45733;52.668;6.860;2024-01-15T02:13:25;1.30;;;1.30;;
59856;SDS011;45733;52.668;6.860;2024-01-15T02:15:51;1.30;;;1.30;;
59856;SDS011;45733;52.668;6.860;2024-01-15T02:18:17;1.20;;;1.20;;
59856;SDS011;45733;52.668;6.860;2024-01-15T02:20:43;1.30;;;1.30;;
59856;SDS011;45733;52.668;6.860;2024-01-15T02:23:09;1.20;;;1.20;;
59856;SDS011;45733;52.668;6.860;2024-01-15T02:25:36;1.20;;;1.20;;
59856;SDS011;45733;52.668;6.860;2024-01-15T02:28:11;1.20;;;1.20;;
59856;SDS011;45733;52.668;6.860;2024-01-15T02:30:39;1.20;;;1.20;;
59856;SDS011;45733;52.668;6.860;2024-01-15T02:33:06;1.20;;;1.20;;
59856;SDS011;45733;52.668;6.860;2024-01-15T02:35:32;1.20;;;1.20;;
59856;SDS011;45733;52.668;6.860;2024-01-15T02:38:01;1.35;;;1.33;;
59856;SDS011;45733;52.668;6.860;2024-01-15T02:40:27;1.20;;;1.20;;
59856;SDS011;45733;52.668;6.860;2024-01-15T02:42:53;1.25;;;1.25;;
59856;SDS011;45733;52.668;6.860;2024-01-15T02:45:19;1.23;;;1.23;;
59856;SDS011;45733;52.668;6.860;2024-01-15T02:47:46;1.20;;;1.20;;
59856;SDS011;45733;52.668;6.860;2024-01-15T02:50:12;1.30;;;1.30;;
59856;SDS011;45733;52.668;6.860;2024-01-15T02:52:38;1.30;;;1.30;;
59856;SDS011;45733;52.668;6.860;2024-01-15T02:55:04;1.20;;;1.20;;
59856;SDS011;45733;52.668;6.860;2024-01-15T02:57:30;1.20;;;1.20;;
59856;SDS011;45733;52.668;6.860;2024-01-15T02:59:56;1.20;;;1.20;;
59856;SDS011;45733;52.668;6.860;2024-01-15T03:02:21;1.20;;;1.20;;
59856;SDS011;45733;52.668;6.860;2024-01-15T03:04:47;1.20;;;1.20;;
59856;SDS011;45733;52.668;6.860;2024-01-15T03:07:16;1.20;;;1.20;;
59856;SDS011;45733;52.668;6.860;2024-01-15T03:09:42;1.20;;;1.20;;
59856;SDS011;45733;52.668;6.860;2024-01-15T03:12:08;1.25;;;1.25;;
59856;SDS011;45733;52.668;6.860;2024-01-15T03:14:35;1.20;;;1.20;;
59856;SDS011;45733;52.668;6.860;2024-01-15T03:17:04;1.10;;;1.10;;
59856;SDS011;45733;52.668;6.860;2024-01-15T03:19:30;1.10;;;1.10;;
59856;SDS011;45733;52.668;6.860;2024-01-15T03:21:56;1.30;;;1.30;;
59856;SDS011;45733;52.668;6.860;2024-01-15T03:24:21;1.30;;;1.30;;
59856;SDS011;45733;52.668;6.860;2024-01-15T03:26:47;1.20;;;1.20;;
59856;SDS011;45733;52.668;6.860;2024-01-15T03:29:13;1.20;;;1.20;;
59856;SDS011;45733;52.668;6.860;2024-01-15T03:31:38;1.20;;;1.20;;
59856;SDS011;45733;52.668;6.860;2024-01-15T03:34:04;1.20;;;1.20;;
59856;SDS011;45733;52.668;6.860;2024-01-15T03:36:30;1.20;;;1.20;;
59856;SDS011;45733;52.668;6.860;2024-01-15T03:38:55;1.20;;;1.20;;
59856;SDS011;45733;52.668;6.860;2024-01-15T03:41:21;1.50;;;1.40;;
59856;SDS011;45733;52.668;6.860;2024-01-15T03:43:47;1.20;;;1.20;;
59856;SDS011;45733;52.668;6.860;2024-01-15T03:46:12;1.30;;;1.30;;
59856;SDS011;45733;52.668;6.860;2024-01-15T03:48:38;1.30;;;1.30;;
59856;SDS011;45733;52.668;6.860;2024-01-15T03:51:04;1.23;;;1.23;;
59856;SDS011;45733;52.668;6.860;2024-01-15T03:53:30;1.27;;;1.27;;
59856;SDS011;45733;52.668;6.860;2024-01-15T03:55:56;1.20;;;1.20;;
59856;SDS011;45733;52.668;6.860;2024-01-15T03:58:21;1.30;;;1.30;;
59856;SDS011;45733;52.668;6.860;2024-01-15T04:00:47;1.30;;;1.30;;
59856;SDS011;45733;52.668;6.860;2024-01-15T04:03:13;1.30;;;1.30;;
59856;SDS011;45733;52.668;6.860;2024-01-15T04:05:38;1.30;;;1.30;;
59856;SDS011;45733;52.668;6.860;2024-01-15T04:08:04;1.30;;;1.30;;
59856;SDS011;45733;52.668;6.860;2024-01-15T04:10:30;1.50;;;1.40;;
59856;SDS011;45733;52.668;6.860;2024-01-15T04:12:56;1.30;;;1.30;;
59856;SDS011;45733;52.668;6.860;2024-01-15T04:15:24;1.48;;;1.38;;
59856;SDS011;45733;52.668;6.860;2024-01-15T04:17:50;1.30;;;1.30;;
59856;SDS011;45733;52.668;6.860;2024-01-15T04:20:17;1.25;;;1.25;;
59856;SDS011;45733;52.668;6.860;2024-01-15T04:22:43;1.30;;;1.30;;
59856;SDS011;45733;52.668;6.860;2024-01-15T04:25:09;1.30;;;1.30;;
59856;SDS011;45733;52.668;6.860;2024-01-15T04:27:35;1.20;;;1.20;;
59856;SDS011;45733;52.668;6.860;2024-01-15T04:30:00;1.30;;;1.30;;
59856;SDS011;45733;52.668;6.860;2024-01-15T04:32:26;1.20;;;1.20;;
59856;SDS011;45733;52.668;6.860;2024-01-15T04:34:51;1.27;;;1.27;;
59856;SDS011;45733;52.668;6.860;2024-01-15T04:37:17;1.20;;;1.20;;
59856;SDS011;45733;52.668;6.860;2024-01-15T04:39:43;1.20;;;1.20;;
59856;SDS011;45733;52.668;6.860;2024-01-15T04:42:08;1.27;;;1.27;;
59856;SDS011;45733;52.668;6.860;2024-01-15T04:44:34;1.48;;;1.40;;
59856;SDS011;45733;52.668;6.860;2024-01-15T04:47:00;1.30;;;1.30;;
59856;SDS011;45733;52.668;6.860;2024-01-15T04:49:25;1.17;;;1.17;;
59856;SDS011;45733;52.668;6.860;2024-01-15T04:51:52;1.23;;;1.23;;
59856;SDS011;45733;52.668;6.860;2024-01-15T04:54:18;1.27;;;1.27;;
59856;SDS011;45733;52.668;6.860;2024-01-15T04:56:44;1.33;;;1.33;;
59856;SDS011;45733;52.668;6.860;2024-01-15T04:59:10;1.10;;;1.10;;
59856;SDS011;45733;52.668;6.860;2024-01-15T05:01:36;1.20;;;1.20;;
59856;SDS011;45733;52.668;6.860;2024-01-15T05:04:01;1.30;;;1.30;;
59856;SDS011;45733;52.668;6.860;2024-01-15T05:06:27;1.10;;;1.10;;
59856;SDS011;45733;52.668;6.860;2024-01-15T05:08:53;1.30;;;1.30;;
59856;SDS011;45733;52.668;6.860;2024-01-15T05:11:18;1.20;;;1.20;;
59856;SDS011;45733;52.668;6.860;2024-01-15T05:13:44;1.20;;;1.20;;
59856;SDS011;45733;52.668;6.860;2024-01-15T05:16:10;1.20;;;1.20;;
59856;SDS011;45733;52.668;6.860;2024-01-15T05:18:36;1.30;;;1.30;;
59856;SDS011;45733;52.668;6.860;2024-01-15T05:21:04;1.30;;;1.30;;
59856;SDS011;45733;52.668;6.860;2024-01-15T05:23:31;1.20;;;1.20;;
59856;SDS011;45733;52.668;6.860;2024-01-15T05:26:00;1.17;;;1.17;;
59856;SDS011;45733;52.668;6.860;2024-01-15T05:28:25;1.20;;;1.20;;
59856;SDS011;45733;52.668;6.860;2024-01-15T05:30:51;1.20;;;1.20;;
59856;SDS011;45733;52.668;6.860;2024-01-15T05:33:17;1.23;;;1.23;;
59856;SDS011;45733;52.668;6.860;2024-01-15T05:35:43;1.20;;;1.20;;
59856;SDS011;45733;52.668;6.860;2024-01-15T05:38:09;1.20;;;1.20;;
59856;SDS011;45733;52.668;6.860;2024-01-15T05:40:34;1.20;;;1.20;;
59856;SDS011;45733;52.668;6.860;2024-01-15T05:43:00;1.20;;;1.20;;
59856;SDS011;45733;52.668;6.860;2024-01-15T05:45:26;1.25;;;1.25;;
59856;SDS011;45733;52.668;6.860;2024-01-15T05:47:52;1.10;;;1.10;;
59856;SDS011;45733;52.668;6.860;2024-01-15T05:50:17;1.20;;;1.20;;
59856;SDS011;45733;52.668;6.860;2024-01-15T05:52:43;1.33;;;1.30;;
59856;SDS011;45733;52.668;6.860;2024-01-15T05:55:09;1.15;;;1.15;;
59856;SDS011;45733;52.668;6.860;2024-01-15T05:57:35;1.30;;;1.30;;
59856;SDS011;45733;52.668;6.860;2024-01-15T06:00:01;1.20;;;1.20;;
59856;SDS011;45733;52.668;6.860;2024-01-15T06:02:27;1.30;;;1.30;;
59856;SDS011;45733;52.668;6.860;2024-01-15T06:04:53;1.25;;;1.25;;
59856;SDS011;45733;52.668;6.860;2024-01-15T06:07:19;1.50;;;1.40;;
59856;SDS011;45733;52.668;6.860;2024-01-15T06:09:44;1.20;;;1.20;;
59856;SDS011;45733;52.668;6.860;2024-01-15T06:12:10;1.20;;;1.20;;
59856;SDS011;45733;52.668;6.860;2024-01-15T06:14:36;1.10;;;1.10;;
59856;SDS011;45733;52.668;6.860;2024-01-15T06:17:01;1.20;;;1.20;;
59856;SDS011;45733;52.668;6.860;2024-01-15T06:19:27;1.27;;;1.27;;
59856;SDS011;45733;52.668;6.860;2024-01-15T06:21:53;1.20;;;1.20;;
59856;SDS011;45733;52.668;6.860;2024-01-15T06:24:19;1.20;;;1.20;;
59856;SDS011;45733;52.668;6.860;2024-01-15T06:26:46;1.30;;;1.30;;
59856;SDS011;45733;52.668;6.860;2024-01-15T06:29:12;1.25;;;1.25;;
59856;SDS011;45733;52.668;6.860;2024-01-15T06:31:37;1.30;;;1.30;;
59856;SDS011;45733;52.668;6.860;2024-01-15T06:34:03;1.20;;;1.20;;
59856;SDS011;45733;52.668;6.860;2024-01-15T06:36:29;1.30;;;1.30;;
59856;SDS011;45733;52.668;6.860;2024-01-15T06:38:54;1.30;;;1.30;;
59856;SDS011;45733;52.668;6.860;2024-01-15T06:41:21;1.20;;;1.20;;
59856;SDS011;45733;52.668;6.860;2024-01-15T06:43:47;1.25;;;1.25;;
59856;SDS011;45733;52.668;6.860;2024-01-15T06:46:19;1.20;;;1.20;;
59856;SDS011;45733;52.668;6.860;2024-01-15T06:48:47;1.27;;;1.27;;
59856;SDS011;45733;52.668;6.860;2024-01-15T06:51:13;1.20;;;1.20;;
59856;SDS011;45733;52.668;6.860;2024-01-15T06:53:40;1.20;;;1.20;;
59856;SDS011;45733;52.668;6.860;2024-01-15T06:56:06;1.20;;;1.20;;
59856;SDS011;45733;52.668;6.860;2024-01-15T06:58:31;1.20;;;1.20;;
59856;SDS011;45733;52.668;6.860;2024-01-15T07:00:57;1.25;;;1.25;;
59856;SDS011;45733;52.668;6.860;2024-01-15T07:03:23;1.25;;;1.25;;
59856;SDS011;45733;52.668;6.860;2024-01-15T07:05:49;1.20;;;1.20;;
59856;SDS011;45733;52.668;6.860;2024-01-15T07:08:15;1.30;;;1.30;;
59856;SDS011;45733;52.668;6.860;2024-01-15T07:10:40;1.30;;;1.30;;
59856;SDS011;45733;52.668;6.860;2024-01-15T07:13:06;1.30;;;1.30;;
59856;SDS011;45733;52.668;6.860;2024-01-15T07:15:32;1.20;;;1.20;;
59856;SDS011;45733;52.668;6.860;2024-01-15T07:17:58;1.25;;;1.25;;
59856;SDS011;45733;52.668;6.860;2024-01-15T07:20:23;1.23;;;1.23;;
59856;SDS011;45733;52.668;6.860;2024-01-15T07:22:49;1.33;;;1.33;;
59856;SDS011;45733;52.668;6.860;2024-01-15T07:25:15;1.20;;;1.20;;
59856;SDS011;45733;52.668;6.860;2024-01-15T07:27:41;1.30;;;1.30;;
59856;SDS011;45733;52.668;6.860;2024-01-15T07:30:10;1.23;;;1.23;;
59856;SDS011;45733;52.668;6.860;2024-01-15T07:32:36;1.35;;;1.33;;
59856;SDS011;45733;52.668;6.860;2024-01-15T07:35:02;1.33;;;1.33;;
59856;SDS011;45733;52.668;6.860;2024-01-15T07:37:28;1.30;;;1.30;;
59856;SDS011;45733;52.668;6.860;2024-01-15T07:39:54;1.45;;;1.40;;
59856;SDS011;45733;52.668;6.860;2024-01-15T07:42:20;1.23;;;1.23;;
59856;SDS011;45733;52.668;6.860;2024-01-15T07:44:45;1.50;;;1.40;;
59856;SDS011;45733;52.668;6.860;2024-01-15T07:47:12;1.23;;;1.23;;
59856;SDS011;45733;52.668;6.860;2024-01-15T07:49:37;1.30;;;1.30;;
59856;SDS011;45733;52.668;6.860;2024-01-15T07:52:03;1.30;;;1.30;;
59856;SDS011;45733;52.668;6.860;2024-01-15T07:54:30;1.25;;;1.25;;
59856;SDS011;45733;52.668;6.860;2024-01-15T07:56:57;1.20;;;1.20;;
59856;SDS011;45733;52.668;6.860;2024-01-15T07:59:24;1.30;;;1.30;;
59856;SDS011;45733;52.668;6.860;2024-01-15T08:01:51;1.27;;;1.27;;
59856;SDS011;45733;52.668;6.860;2024-01-15T08:04:17;1.20;;;1.20;;
59856;SDS011;45733;52.668;6.860;2024-01-15T08:06:43;1.30;;;1.30;;
59856;SDS011;45733;52.668;6.860;2024-01-15T08:09:08;1.25;;;1.25;;
59856;SDS011;45733;52.668;6.860;2024-01-15T08:11:34;1.45;;;1.40;;
59856;SDS011;45733;52.668;6.860;2024-01-15T08:14:00;1.30;;;1.30;;
59856;SDS011;45733;52.668;6.860;2024-01-15T08:16:26;1.27;;;1.27;;
59856;SDS011;45733;52.668;6.860;2024-01-15T08:18:52;1.25;;;1.25;;
59856;SDS011;45733;52.668;6.860;2024-01-15T08:21:18;1.30;;;1.30;;
59856;SDS011;45733;52.668;6.860;2024-01-15T08:23:44;1.20;;;1.20;;
59856;SDS011;45733;52.668;6.860;2024-01-15T08:26:10;1.30;;;1.30;;
59856;SDS011;45733;52.668;6.860;2024-01-15T08:28:36;1.30;;;1.30;;
59856;SDS011;45733;52.668;6.860;2024-01-15T08:31:02;1.30;;;1.30;;
59856;SDS011;45733;52.668;6.860;2024-01-15T08:33:28;1.40;;;1.40;;
59856;SDS011;45733;52.668;6.860;2024-01-15T08:35:54;1.30;;;1.30;;
59856;SDS011;45733;52.668;6.860;2024-01-15T08:38:20;1.20;;;1.20;;
59856;SDS011;45733;52.668;6.860;2024-01-15T08:40:46;1.30;;;1.30;;
59856;SDS011;45733;52.668;6.860;2024-01-15T08:43:12;1.30;;;1.30;;
59856;SDS011;45733;52.668;6.860;2024-01-15T08:45:40;1.40;;;1.40;;
59856;SDS011;45733;52.668;6.860;2024-01-15T08:48:06;1.30;;;1.30;;
59856;SDS011;45733;52.668;6.860;2024-01-15T08:50:32;1.30;;;1.30;;
59856;SDS011;45733;52.668;6.860;2024-01-15T08:52:58;1.25;;;1.25;;
59856;SDS011;45733;52.668;6.860;2024-01-15T08:55:24;1.20;;;1.20;;
59856;SDS011;45733;52.668;6.860;2024-01-15T08:57:50;1.30;;;1.30;;
59856;SDS011;45733;52.668;6.860;2024-01-15T09:00:16;1.30;;;1.30;;
59856;SDS011;45733;52.668;6.860;2024-01-15T09:02:42;1.25;;;1.25;;
59856;SDS011;45733;52.668;6.860;2024-01-15T09:05:08;1.60;;;1.50;;
59856;SDS011;45733;52.668;6.860;2024-01-15T09:07:34;1.50;;;1.40;;
59856;SDS011;45733;52.668;6.860;2024-01-15T09:10:00;1.33;;;1.30;;
59856;SDS011;45733;52.668;6.860;2024-01-15T09:12:26;1.30;;;1.30;;
59856;SDS011;45733;52.668;6.860;2024-01-15T09:14:52;1.35;;;1.35;;
59856;SDS011;45733;52.668;6.860;2024-01-15T09:17:19;1.30;;;1.30;;
59856;SDS011;45733;52.668;6.860;2024-01-15T09:19:45;1.48;;;1.38;;
59856;SDS011;45733;52.668;6.860;2024-01-15T09:22:12;1.27;;;1.27;;
59856;SDS011;45733;52.668;6.860;2024-01-15T09:24:40;1.30;;;1.30;;
59856;SDS011;45733;52.668;6.860;2024-01-15T09:27:06;1.30;;;1.30;;
59856;SDS011;45733;52.668;6.860;2024-01-15T09:29:32;1.55;;;1.45;;
59856;SDS011;45733;52.668;6.860;2024-01-15T09:31:58;1.30;;;1.30;;
59856;SDS011;45733;52.668;6.860;2024-01-15T09:34:24;1.30;;;1.30;;
59856;SDS011;45733;52.668;6.860;2024-01-15T09:36:49;1.40;;;1.35;;
59856;SDS011;45733;52.668;6.860;2024-01-15T09:39:15;1.38;;;1.35;;
59856;SDS011;45733;52.668;6.860;2024-01-15T09:41:41;1.35;;;1.30;;
59856;SDS011;45733;52.668;6.860;2024-01-15T09:44:08;1.27;;;1.27;;
59856;SDS011;45733;52.668;6.860;2024-01-15T09:46:35;1.38;;;1.33;;
59856;SDS011;45733;52.668;6.860;2024-01-15T09:49:01;1.60;;;1.50;;
59856;SDS011;45733;52.668;6.860;2024-01-15T09:51:28;1.33;;;1.30;;
59856;SDS011;45733;52.668;6.860;2024-01-15T09:53:58;1.50;;;1.40;;
59856;SDS011;45733;52.668;6.860;2024-01-15T09:56:24;1.33;;;1.33;;
59856;SDS011;45733;52.668;6.860;2024-01-15T09:58:50;1.50;;;1.40;;
59856;SDS011;45733;52.668;6.860;2024-01-15T10:01:20;1.30;;;1.30;;
59856;SDS011;45733;52.668;6.860;2024-01-15T10:03:46;1.23;;;1.23;;
59856;SDS011;45733;52.668;6.860;2024-01-15T10:06:15;1.50;;;1.40;;
59856;SDS011;45733;52.668;6.860;2024-01-15T10:08:48;1.50;;;1.40;;
59856;SDS011;45733;52.668;6.860;2024-01-15T10:11:15;1.50;;;1.40;;
59856;SDS011;45733;52.668;6.860;2024-01-15T10:13:43;1.58;;;1.48;;
59856;SDS011;45733;52.668;6.860;2024-01-15T10:16:09;1.50;;;1.40;;
59856;SDS011;45733;52.668;6.860;2024-01-15T10:18:36;1.58;;;1.48;;
59856;SDS011;45733;52.668;6.860;2024-01-15T10:21:02;1.50;;;1.40;;
59856;SDS011;45733;52.668;6.860;2024-01-15T10:23:29;1.60;;;1.50;;
59856;SDS011;45733;52.668;6.860;2024-01-15T10:25:57;1.58;;;1.48;;
59856;SDS011;45733;52.668;6.860;2024-01-15T10:28:25;1.58;;;1.48;;
59856;SDS011;45733;52.668;6.860;2024-01-15T10:30:52;1.50;;;1.40;;
59856;SDS011;45733;52.668;6.860;2024-01-15T10:33:22;1.20;;;1.20;;
59856;SDS011;45733;52.668;6.860;2024-01-15T10:35:54;1.58;;;1.48;;
59856;SDS011;45733;52.668;6.860;2024-01-15T10:38:22;1.55;;;1.45;;
59856;SDS011;45733;52.668;6.860;2024-01-15T10:40:51;1.60;;;1.50;;
59856;SDS011;45733;52.668;6.860;2024-01-15T10:43:18;1.50;;;1.40;;
59856;SDS011;45733;52.668;6.860;2024-01-15T10:45:44;1.58;;;1.48;;
59856;SDS011;45733;52.668;6.860;2024-01-15T10:48:10;1.67;;;1.58;;
59856;SDS011;45733;52.668;6.860;2024-01-15T10:50:37;1.50;;;1.40;;
59856;SDS011;45733;52.668;6.860;2024-01-15T10:53:03;1.38;;;1.38;;
59856;SDS011;45733;52.668;6.860;2024-01-15T10:55:29;1.60;;;1.50;;
59856;SDS011;45733;52.668;6.860;2024-01-15T10:57:57;1.50;;;1.40;;
59856;SDS011;45733;52.668;6.860;2024-01-15T11:00:23;1.55;;;1.45;;
59856;SDS011;45733;52.668;6.860;2024-01-15T11:02:50;1.50;;;1.40;;
59856;SDS011;45733;52.668;6.860;2024-01-15T11:05:38;1.50;;;1.40;;
59856;SDS011;45733;52.668;6.860;2024-01-15T11:08:07;1.50;;;1.40;;
59856;SDS011;45733;52.668;6.860;2024-01-15T11:15:59;1.50;;;1.40;;
59856;SDS011;45733;52.668;6.860;2024-01-15T11:18:29;1.50;;;1.40;;
59856;SDS011;45733;52.668;6.860;2024-01-15T11:31:59;1.33;;;1.30;;
59856;SDS011;45733;52.668;6.860;2024-01-15T11:37:23;1.50;;;1.40;;
59856;SDS011;45733;52.668;6.860;2024-01-15T11:39:53;1.60;;;1.50;;
59856;SDS011;45733;52.668;6.860;2024-01-15T11:42:20;1.60;;;1.50;;
59856;SDS011;45733;52.668;6.860;2024-01-15T11:44:47;1.50;;;1.40;;
59856;SDS011;45733;52.668;6.860;2024-01-15T11:47:13;1.50;;;1.40;;
59856;SDS011;45733;52.668;6.860;2024-01-15T11:52:21;1.50;;;1.40;;
59856;SDS011;45733;52.668;6.860;2024-01-15T12:00:10;1.50;;;1.40;;
59856;SDS011;45733;52.668;6.860;2024-01-15T12:02:41;1.58;;;1.48;;
59856;SDS011;45733;52.668;6.860;2024-01-15T12:05:11;1.60;;;1.50;;
59856;SDS011;45733;52.668;6.860;2024-01-15T12:07:38;1.70;;;1.60;;
59856;SDS011;45733;52.668;6.860;2024-01-15T12:10:15;1.67;;;1.58;;
59856;SDS011;45733;52.668;6.860;2024-01-15T12:17:57;1.50;;;1.40;;
59856;SDS011;45733;52.668;6.860;2024-01-15T12:20:24;1.50;;;1.40;;
59856;SDS011;45733;52.668;6.860;2024-01-15T12:22:51;1.60;;;1.50;;
59856;SDS011;45733;52.668;6.860;2024-01-15T12:25:17;1.60;;;1.50;;
59856;SDS011;45733;52.668;6.860;2024-01-15T12:27:42;1.70;;;1.60;;
59856;SDS011;45733;52.668;6.860;2024-01-15T12:30:12;1.70;;;1.60;;
59856;SDS011;45733;52.668;6.860;2024-01-15T12:32:39;1.60;;;1.50;;
59856;SDS011;45733;52.668;6.860;2024-01-15T12:35:06;1.60;;;1.50;;
59856;SDS011;45733;52.668;6.860;2024-01-15T12:37:31;1.50;;;1.40;;
59856;SDS011;45733;52.668;6.860;2024-01-15T12:39:58;1.50;;;1.40;;
59856;SDS011;45733;52.668;6.860;2024-01-15T12:42:24;1.30;;;1.30;;
59856;SDS011;45733;52.668;6.860;2024-01-15T12:44:50;1.30;;;1.30;;
59856;SDS011;45733;52.668;6.860;2024-01-15T12:47:16;1.30;;;1.30;;
59856;SDS011;45733;52.668;6.860;2024-01-15T12:49:46;1.30;;;1.30;;
59856;SDS011;45733;52.668;6.860;2024-01-15T12:52:15;1.40;;;1.30;;
59856;SDS011;45733;52.668;6.860;2024-01-15T12:54:43;1.35;;;1.33;;
59856;SDS011;45733;52.668;6.860;2024-01-15T12:57:09;1.30;;;1.30;;
59856;SDS011;45733;52.668;6.860;2024-01-15T12:59:35;1.48;;;1.40;;
59856;SDS011;45733;52.668;6.860;2024-01-15T13:02:00;1.50;;;1.40;;
59856;SDS011;45733;52.668;6.860;2024-01-15T13:04:26;1.38;;;1.38;;
59856;SDS011;45733;52.668;6.860;2024-01-15T13:06:52;1.50;;;1.40;;
59856;SDS011;45733;52.668;6.860;2024-01-15T13:09:18;1.50;;;1.40;;
59856;SDS011;45733;52.668;6.860;2024-01-15T13:11:44;1.50;;;1.40;;
59856;SDS011;45733;52.668;6.860;2024-01-15T13:14:10;1.38;;;1.35;;
59856;SDS011;45733;52.668;6.860;2024-01-15T13:16:36;1.52;;;1.42;;
59856;SDS011;45733;52.668;6.860;2024-01-15T13:19:02;1.50;;;1.40;;
59856;SDS011;45733;52.668;6.860;2024-01-15T13:21:29;1.60;;;1.50;;
59856;SDS011;45733;52.668;6.860;2024-01-15T13:23:55;1.73;;;1.63;;
59856;SDS011;45733;52.668;6.860;2024-01-15T13:26:21;1.48;;;1.38;;
59856;SDS011;45733;52.668;6.860;2024-01-15T13:28:47;1.30;;;1.30;;
59856;SDS011;45733;52.668;6.860;2024-01-15T13:31:14;1.52;;;1.42;;
59856;SDS011;45733;52.668;6.860;2024-01-15T13:33:39;1.38;;;1.38;;
59856;SDS011;45733;52.668;6.860;2024-01-15T13:36:05;1.50;;;1.40;;
59856;SDS011;45733;52.668;6.860;2024-01-15T13:38:35;1.30;;;1.30;;
59856;SDS011;45733;52.668;6.860;2024-01-15T13:41:03;1.42;;;1.38;;
59856;SDS011;45733;52.668;6.860;2024-01-15T13:43:32;1.45;;;1.38;;
59856;SDS011;45733;52.668;6.860;2024-01-15T13:45:59;1.52;;;1.42;;
59856;SDS011;45733;52.668;6.860;2024-01-15T13:48:25;1.50;;;1.40;;
59856;SDS011;45733;52.668;6.860;2024-01-15T13:50:51;1.55;;;1.45;;
59856;SDS011;45733;52.668;6.860;2024-01-15T13:53:18;1.52;;;1.42;;
59856;SDS011;45733;52.668;6.860;2024-01-15T13:55:44;1.52;;;1.42;;
59856;SDS011;45733;52.668;6.860;2024-01-15T13:58:10;1.50;;;1.40;;
59856;SDS011;45733;52.668;6.860;2024-01-15T14:00:36;1.42;;;1.40;;
59856;SDS011;45733;52.668;6.860;2024-01-15T14:03:02;1.38;;;1.35;;
59856;SDS011;45733;52.668;6.860;2024-01-15T14:05:28;1.33;;;1.30;;
59856;SDS011;45733;52.668;6.860;2024-01-15T14:07:54;1.50;;;1.40;;
59856;SDS011;45733;52.668;6.860;2024-01-15T14:10:20;1.30;;;1.30;;
59856;SDS011;45733;52.668;6.860;2024-01-15T14:12:46;1.52;;;1.42;;
59856;SDS011;45733;52.668;6.860;2024-01-15T14:15:11;1.48;;;1.38;;
59856;SDS011;45733;52.668;6.860;2024-01-15T14:17:37;1.30;;;1.30;;
59856;SDS011;45733;52.668;6.860;2024-01-15T14:20:03;1.42;;;1.40;;
59856;SDS011;45733;52.668;6.860;2024-01-15T14:22:30;1.50;;;1.40;;
59856;SDS011;45733;52.668;6.860;2024-01-15T14:24:56;1.30;;;1.30;;
59856;SDS011;45733;52.668;6.860;2024-01-15T14:27:21;1.50;;;1.40;;
59856;SDS011;45733;52.668;6.860;2024-01-15T14:29:47;1.55;;;1.45;;
59856;SDS011;45733;52.668;6.860;2024-01-15T14:32:13;1.50;;;1.40;;
59856;SDS011;45733;52.668;6.860;2024-01-15T14:34:39;1.50;;;1.40;;
59856;SDS011;45733;52.668;6.860;2024-01-15T14:37:05;1.40;;;1.40;;
59856;SDS011;45733;52.668;6.860;2024-01-15T14:39:31;1.60;;;1.50;;
59856;SDS011;45733;52.668;6.860;2024-01-15T14:41:59;1.60;;;1.50;;
59856;SDS011;45733;52.668;6.860;2024-01-15T14:44:25;1.60;;;1.50;;
59856;SDS011;45733;52.668;6.860;2024-01-15T14:46:51;1.60;;;1.50;;
59856;SDS011;45733;52.668;6.860;2024-01-15T14:49:17;1.60;;;1.50;;
59856;SDS011;45733;52.668;6.860;2024-01-15T14:51:43;1.63;;;1.52;;
59856;SDS011;45733;52.668;6.860;2024-01-15T14:54:09;1.60;;;1.50;;
59856;SDS011;45733;52.668;6.860;2024-01-15T14:56:35;1.67;;;1.58;;
59856;SDS011;45733;52.668;6.860;2024-01-15T14:59:01;1.60;;;1.50;;
59856;SDS011;45733;52.668;6.860;2024-01-15T15:01:27;1.30;;;1.30;;
59856;SDS011;45733;52.668;6.860;2024-01-15T15:03:53;1.60;;;1.50;;
59856;SDS011;45733;52.668;6.860;2024-01-15T15:06:19;1.70;;;1.60;;
59856;SDS011;45733;52.668;6.860;2024-01-15T15:08:46;1.55;;;1.45;;
59856;SDS011;45733;52.668;6.860;2024-01-15T15:11:11;1.70;;;1.60;;
59856;SDS011;45733;52.668;6.860;2024-01-15T15:13:37;1.50;;;1.40;;
59856;SDS011;45733;52.668;6.860;2024-01-15T15:16:03;1.50;;;1.40;;